sensor_id;sensor_type;location;lat;lon;timestamp;pressure;altitude;pressure_sealevel;temperature;humidity
79612;BME280;69094;48.154;11.536;2023-08-31T00:02:21;94989.19;;;13.38;74.79
79612;BME280;69094;48.154;11.536;2023-08-31T00:04:46;95000.75;;;13.31;75.07
79612;BME280;69094;48.154;11.536;2023-08-31T00:07:11;94995.91;;;13.25;75.11
79612;BME280;69094;48.154;11.536;2023-08-31T00:09:37;94998.22;;;13.23;75.56
79612;BME280;69094;48.154;11.536;2023-08-31T00:12:02;94991.50;;;13.20;75.16
79612;BME280;69094;48.154;11.536;2023-08-31T00:14:28;94989.50;;;13.17;75.20
79612;BME280;69094;48.154;11.536;2023-08-31T00:16:54;94995.50;;;13.07;75.69
79612;BME280;69094;48.154;11.536;2023-08-31T00:19:22;95002.09;;;13.06;75.55
79612;BME280;69094;48.154;11.536;2023-08-31T00:21:48;94998.47;;;13.02;75.30
79612;BME280;69094;48.154;11.536;2023-08-31T00:24:14;94992.94;;;12.98;75.25
79612;BME280;69094;48.154;11.536;2023-08-31T00:26:39;94997.34;;;13.03;75.31
79612;BME280;69094;48.154;11.536;2023-08-31T00:29:06;94996.91;;;13.01;75.17
79612;BME280;69094;48.154;11.536;2023-08-31T00:31:32;94995.25;;;12.96;74.87
79612;BME280;69094;48.154;11.536;2023-08-31T00:33:59;94991.28;;;12.93;75.36
79612;BME280;69094;48.154;11.536;2023-08-31T00:36:28;94994.38;;;12.92;74.99
79612;BME280;69094;48.154;11.536;2023-08-31T00:38:53;95004.59;;;12.95;75.39
79612;BME280;69094;48.154;11.536;2023-08-31T00:41:19;95004.06;;;12.89;75.13
79612;BME280;69094;48.154;11.536;2023-08-31T00:43:45;94994.72;;;12.90;74.96
79612;BME280;69094;48.154;11.536;2023-08-31T00:46:10;95006.81;;;12.89;74.39
79612;BME280;69094;48.154;11.536;2023-08-31T00:48:36;95009.25;;;12.95;74.09
79612;BME280;69094;48.154;11.536;2023-08-31T00:51:03;95003.44;;;12.96;73.74
79612;BME280;69094;48.154;11.536;2023-08-31T00:53:29;94998.69;;;12.93;73.70
79612;BME280;69094;48.154;11.536;2023-08-31T00:55:55;95017.09;;;12.96;73.93
79612;BME280;69094;48.154;11.536;2023-08-31T00:58:20;95013.41;;;13.04;73.31
79612;BME280;69094;48.154;11.536;2023-08-31T01:01:04;95020.09;;;13.07;73.23
79612;BME280;69094;48.154;11.536;2023-08-31T01:11:56;95004.94;;;12.78;74.87
79612;BME280;69094;48.154;11.536;2023-08-31T01:14:27;95002.47;;;12.73;74.76
79612;BME280;69094;48.154;11.536;2023-08-31T01:16:54;94999.13;;;12.63;74.94
79612;BME280;69094;48.154;11.536;2023-08-31T01:19:34;94998.22;;;12.59;75.50
79612;BME280;69094;48.154;11.536;2023-08-31T01:22:12;95001.66;;;12.56;75.18
79612;BME280;69094;48.154;11.536;2023-08-31T01:24:39;94995.09;;;12.57;75.34
79612;BME280;69094;48.154;11.536;2023-08-31T01:27:06;95000.63;;;12.61;75.61
79612;BME280;69094;48.154;11.536;2023-08-31T01:29:31;95008.72;;;12.57;75.61
79612;BME280;69094;48.154;11.536;2023-08-31T01:31:57;95007.56;;;12.58;75.44
79612;BME280;69094;48.154;11.536;2023-08-31T01:34:22;95009.34;;;12.66;75.28
79612;BME280;69094;48.154;11.536;2023-08-31T01:36:53;95005.47;;;12.67;74.83
79612;BME280;69094;48.154;11.536;2023-08-31T01:39:26;95007.69;;;12.78;74.85
79612;BME280;69094;48.154;11.536;2023-08-31T01:42:01;95008.91;;;12.80;75.07
79612;BME280;69094;48.154;11.536;2023-08-31T01:44:33;95012.09;;;12.82;74.66
79612;BME280;69094;48.154;11.536;2023-08-31T01:47:04;95009.88;;;12.88;74.59
79612;BME280;69094;48.154;11.536;2023-08-31T01:49:39;95012.59;;;12.88;74.95
79612;BME280;69094;48.154;11.536;2023-08-31T01:52:05;95008.97;;;12.84;75.21
79612;BME280;69094;48.154;11.536;2023-08-31T01:54:31;95014.44;;;12.84;75.30
79612;BME280;69094;48.154;11.536;2023-08-31T01:56:56;95015.69;;;12.86;75.45
79612;BME280;69094;48.154;11.536;2023-08-31T01:59:22;95015.34;;;12.88;75.70
79612;BME280;69094;48.154;11.536;2023-08-31T02:01:47;95024.31;;;12.88;75.21
79612;BME280;69094;48.154;11.536;2023-08-31T02:04:12;95020.88;;;12.91;75.35
79612;BME280;69094;48.154;11.536;2023-08-31T02:06:38;95028.66;;;12.89;75.20
79612;BME280;69094;48.154;11.536;2023-08-31T02:09:03;95022.28;;;12.85;75.07
79612;BME280;69094;48.154;11.536;2023-08-31T02:11:29;95028.19;;;12.87;75.63
79612;BME280;69094;48.154;11.536;2023-08-31T02:13:57;95030.94;;;12.87;75.83
79612;BME280;69094;48.154;11.536;2023-08-31T02:16:22;95028.81;;;12.81;75.80
79612;BME280;69094;48.154;11.536;2023-08-31T02:18:48;95037.91;;;12.85;75.69
79612;BME280;69094;48.154;11.536;2023-08-31T02:21:13;95050.31;;;12.82;75.91
79612;BME280;69094;48.154;11.536;2023-08-31T02:23:39;95049.41;;;12.78;75.65
79612;BME280;69094;48.154;11.536;2023-08-31T02:26:04;95053.94;;;13.02;75.25
79612;BME280;69094;48.154;11.536;2023-08-31T02:28:29;95068.19;;;13.11;74.93
79612;BME280;69094;48.154;11.536;2023-08-31T02:30:59;95081.41;;;13.25;75.30
79612;BME280;69094;48.154;11.536;2023-08-31T02:33:24;95091.88;;;13.23;75.76
79612;BME280;69094;48.154;11.536;2023-08-31T02:35:50;95094.38;;;13.28;76.91
79612;BME280;69094;48.154;11.536;2023-08-31T02:38:15;95103.88;;;13.03;79.46
79612;BME280;69094;48.154;11.536;2023-08-31T02:40:41;95114.34;;;12.85;80.52
79612;BME280;69094;48.154;11.536;2023-08-31T02:43:06;95107.09;;;12.77;80.70
79612;BME280;69094;48.154;11.536;2023-08-31T02:45:31;95101.56;;;12.73;81.83
79612;BME280;69094;48.154;11.536;2023-08-31T02:47:57;95092.41;;;12.81;83.00
79612;BME280;69094;48.154;11.536;2023-08-31T02:50:22;95084.84;;;12.90;83.30
79612;BME280;69094;48.154;11.536;2023-08-31T02:52:47;95081.31;;;12.90;83.56
79612;BME280;69094;48.154;11.536;2023-08-31T02:55:13;95089.94;;;12.76;84.37
79612;BME280;69094;48.154;11.536;2023-08-31T02:57:38;95099.66;;;12.61;84.63
79612;BME280;69094;48.154;11.536;2023-08-31T03:00:04;95105.97;;;12.49;84.90
79612;BME280;69094;48.154;11.536;2023-08-31T03:02:34;95098.03;;;12.44;85.57
79612;BME280;69094;48.154;11.536;2023-08-31T03:04:59;95075.78;;;12.42;85.82
79612;BME280;69094;48.154;11.536;2023-08-31T03:07:26;95089.13;;;12.60;85.98
79612;BME280;69094;48.154;11.536;2023-08-31T03:09:52;95093.34;;;12.57;85.98
79612;BME280;69094;48.154;11.536;2023-08-31T03:12:17;95092.34;;;12.49;86.75
79612;BME280;69094;48.154;11.536;2023-08-31T03:14:43;95092.34;;;12.49;86.75
79612;BME280;69094;48.154;11.536;2023-08-31T03:17:08;95077.81;;;12.45;86.60
79612;BME280;69094;48.154;11.536;2023-08-31T03:19:33;95091.47;;;12.45;86.57
79612;BME280;69094;48.154;11.536;2023-08-31T03:21:59;95090.34;;;12.34;87.83
79612;BME280;69094;48.154;11.536;2023-08-31T03:24:24;95090.59;;;12.29;87.84
79612;BME280;69094;48.154;11.536;2023-08-31T03:26:50;95086.31;;;12.28;87.61
79612;BME280;69094;48.154;11.536;2023-08-31T03:29:15;95098.69;;;12.25;87.55
79612;BME280;69094;48.154;11.536;2023-08-31T03:31:40;95096.75;;;12.26;87.73
79612;BME280;69094;48.154;11.536;2023-08-31T03:34:06;95105.03;;;12.29;87.76
79612;BME280;69094;48.154;11.536;2023-08-31T03:36:31;95111.09;;;12.23;87.84
79612;BME280;69094;48.154;11.536;2023-08-31T03:38:56;95102.91;;;12.23;86.90
79612;BME280;69094;48.154;11.536;2023-08-31T03:41:22;95112.59;;;12.20;86.44
79612;BME280;69094;48.154;11.536;2023-08-31T03:43:47;95117.13;;;12.16;86.96
79612;BME280;69094;48.154;11.536;2023-08-31T03:46:12;95127.47;;;12.23;87.12
79612;BME280;69094;48.154;11.536;2023-08-31T03:48:38;95132.25;;;12.14;87.05
79612;BME280;69094;48.154;11.536;2023-08-31T03:51:03;95131.34;;;12.10;87.48
79612;BME280;69094;48.154;11.536;2023-08-31T03:53:29;95132.13;;;12.22;87.02
79612;BME280;69094;48.154;11.536;2023-08-31T03:55:54;95135.19;;;12.21;86.72
79612;BME280;69094;48.154;11.536;2023-08-31T03:58:19;95123.06;;;12.18;86.74
79612;BME280;69094;48.154;11.536;2023-08-31T04:00:48;95137.22;;;12.24;86.84
79612;BME280;69094;48.154;11.536;2023-08-31T04:03:14;95144.19;;;12.21;87.25
79612;BME280;69094;48.154;11.536;2023-08-31T04:05:39;95145.41;;;12.24;86.69
79612;BME280;69094;48.154;11.536;2023-08-31T04:08:05;95144.19;;;12.21;86.52
79612;BME280;69094;48.154;11.536;2023-08-31T04:10:31;95135.91;;;12.18;86.85
79612;BME280;69094;48.154;11.536;2023-08-31T04:12:57;95136.44;;;12.23;86.73
79612;BME280;69094;48.154;11.536;2023-08-31T04:15:22;95139.09;;;12.20;86.99
79612;BME280;69094;48.154;11.536;2023-08-31T04:17:47;95148.53;;;12.10;87.26
79612;BME280;69094;48.154;11.536;2023-08-31T04:20:15;95145.81;;;12.10;87.05
79612;BME280;69094;48.154;11.536;2023-08-31T04:22:40;95147.59;;;12.18;87.46
79612;BME280;69094;48.154;11.536;2023-08-31T04:25:06;95157.34;;;12.19;87.14
79612;BME280;69094;48.154;11.536;2023-08-31T04:27:32;95159.84;;;12.24;86.37
79612;BME280;69094;48.154;11.536;2023-08-31T04:30:01;95156.78;;;12.26;87.54
79612;BME280;69094;48.154;11.536;2023-08-31T04:32:27;95159.97;;;12.28;86.26
79612;BME280;69094;48.154;11.536;2023-08-31T04:34:53;95170.44;;;12.26;88.17
79612;BME280;69094;48.154;11.536;2023-08-31T04:37:18;95176.78;;;12.30;86.83
79612;BME280;69094;48.154;11.536;2023-08-31T04:39:44;95187.81;;;12.21;87.31
79612;BME280;69094;48.154;11.536;2023-08-31T04:42:09;95182.28;;;12.18;87.08
79612;BME280;69094;48.154;11.536;2023-08-31T04:44:34;95185.66;;;12.15;87.64
79612;BME280;69094;48.154;11.536;2023-08-31T04:47:00;95183.88;;;12.06;87.56
79612;BME280;69094;48.154;11.536;2023-08-31T04:49:25;95194.00;;;12.06;88.23
79612;BME280;69094;48.154;11.536;2023-08-31T04:51:52;95192.50;;;12.09;88.45
79612;BME280;69094;48.154;11.536;2023-08-31T04:54:17;95190.94;;;12.07;87.88
79612;BME280;69094;48.154;11.536;2023-08-31T04:56:43;95190.03;;;12.03;88.25
79612;BME280;69094;48.154;11.536;2023-08-31T04:59:08;95196.81;;;12.10;87.94
79612;BME280;69094;48.154;11.536;2023-08-31T05:01:34;95198.06;;;12.12;87.84
79612;BME280;69094;48.154;11.536;2023-08-31T05:03:59;95193.63;;;12.20;87.45
79612;BME280;69094;48.154;11.536;2023-08-31T05:06:24;95189.44;;;12.22;86.72
79612;BME280;69094;48.154;11.536;2023-08-31T05:08:50;95206.13;;;12.21;86.90
79612;BME280;69094;48.154;11.536;2023-08-31T05:11:15;95197.94;;;12.21;86.79
79612;BME280;69094;48.154;11.536;2023-08-31T05:13:41;95204.41;;;12.28;86.40
79612;BME280;69094;48.154;11.536;2023-08-31T05:16:10;95213.59;;;12.36;86.43
79612;BME280;69094;48.154;11.536;2023-08-31T05:18:36;95213.13;;;12.34;86.17
79612;BME280;69094;48.154;11.536;2023-08-31T05:21:02;95209.16;;;12.32;86.64
79612;BME280;69094;48.154;11.536;2023-08-31T05:23:28;95212.91;;;12.27;87.02
79612;BME280;69094;48.154;11.536;2023-08-31T05:25:54;95211.81;;;12.28;86.86
79612;BME280;69094;48.154;11.536;2023-08-31T05:28:22;95204.41;;;12.28;86.66
79612;BME280;69094;48.154;11.536;2023-08-31T05:30:49;95216.00;;;12.38;86.00
79612;BME280;69094;48.154;11.536;2023-08-31T05:33:15;95211.53;;;12.45;85.44
79612;BME280;69094;48.154;11.536;2023-08-31T05:35:41;95210.25;;;12.55;86.14
79612;BME280;69094;48.154;11.536;2023-08-31T05:38:06;95219.44;;;12.63;84.83
79612;BME280;69094;48.154;11.536;2023-08-31T05:40:32;95213.63;;;12.64;84.61
79612;BME280;69094;48.154;11.536;2023-08-31T05:42:57;95231.56;;;12.78;84.50
79612;BME280;69094;48.154;11.536;2023-08-31T05:45:22;95222.59;;;12.77;84.38
79612;BME280;69094;48.154;11.536;2023-08-31T05:47:48;95220.03;;;12.84;84.04
79612;BME280;69094;48.154;11.536;2023-08-31T05:50:14;95234.44;;;12.97;84.55
79612;BME280;69094;48.154;11.536;2023-08-31T05:52:39;95239.00;;;12.93;83.73
79612;BME280;69094;48.154;11.536;2023-08-31T05:55:11;95240.50;;;12.90;84.53
79612;BME280;69094;48.154;11.536;2023-08-31T05:57:37;95226.66;;;12.83;83.91
79612;BME280;69094;48.154;11.536;2023-08-31T06:00:06;95237.22;;;12.85;84.12
79612;BME280;69094;48.154;11.536;2023-08-31T06:02:33;95238.09;;;12.89;84.83
79612;BME280;69094;48.154;11.536;2023-08-31T06:05:00;95234.78;;;12.96;84.81
79612;BME280;69094;48.154;11.536;2023-08-31T06:07:25;95250.66;;;13.06;83.84
79612;BME280;69094;48.154;11.536;2023-08-31T06:09:50;95255.53;;;13.12;83.58
79612;BME280;69094;48.154;11.536;2023-08-31T06:12:16;95257.84;;;13.26;83.49
79612;BME280;69094;48.154;11.536;2023-08-31T06:14:41;95260.50;;;13.23;82.29
79612;BME280;69094;48.154;11.536;2023-08-31T06:17:06;95255.63;;;13.16;82.09
79612;BME280;69094;48.154;11.536;2023-08-31T06:19:33;95260.81;;;13.33;81.54
79612;BME280;69094;48.154;11.536;2023-08-31T06:21:59;95252.88;;;13.28;81.31
79612;BME280;69094;48.154;11.536;2023-08-31T06:24:24;95261.19;;;13.32;81.40
79612;BME280;69094;48.154;11.536;2023-08-31T06:26:49;95263.09;;;13.31;81.02
79612;BME280;69094;48.154;11.536;2023-08-31T06:29:15;95258.81;;;13.46;79.95
79612;BME280;69094;48.154;11.536;2023-08-31T06:31:40;95252.41;;;13.54;79.55
79612;BME280;69094;48.154;11.536;2023-08-31T06:34:06;95260.84;;;13.65;79.76
79612;BME280;69094;48.154;11.536;2023-08-31T06:36:31;95254.00;;;13.71;79.17
79612;BME280;69094;48.154;11.536;2023-08-31T06:38:56;95264.31;;;13.62;79.63
79612;BME280;69094;48.154;11.536;2023-08-31T06:41:22;95276.38;;;13.61;80.35
79612;BME280;69094;48.154;11.536;2023-08-31T06:43:47;95267.75;;;13.59;80.65
79612;BME280;69094;48.154;11.536;2023-08-31T06:46:12;95272.50;;;13.62;80.32
79612;BME280;69094;48.154;11.536;2023-08-31T06:48:38;95268.16;;;13.61;80.59
79612;BME280;69094;48.154;11.536;2023-08-31T06:51:03;95266.31;;;13.65;80.47
79612;BME280;69094;48.154;11.536;2023-08-31T06:53:29;95276.56;;;13.68;81.34
79612;BME280;69094;48.154;11.536;2023-08-31T06:55:56;95273.94;;;13.72;80.05
79612;BME280;69094;48.154;11.536;2023-08-31T06:58:22;95282.22;;;13.75;80.23
79612;BME280;69094;48.154;11.536;2023-08-31T07:00:47;95273.47;;;13.86;79.88
79612;BME280;69094;48.154;11.536;2023-08-31T07:03:13;95284.59;;;13.77;80.45
79612;BME280;69094;48.154;11.536;2023-08-31T07:05:42;95293.06;;;13.88;79.58
79612;BME280;69094;48.154;11.536;2023-08-31T07:08:07;95291.03;;;14.00;79.59
79612;BME280;69094;48.154;11.536;2023-08-31T07:10:33;95296.06;;;14.14;78.25
79612;BME280;69094;48.154;11.536;2023-08-31T07:13:01;95294.19;;;14.18;78.21
79612;BME280;69094;48.154;11.536;2023-08-31T07:15:27;95299.28;;;14.36;77.01
79612;BME280;69094;48.154;11.536;2023-08-31T07:17:52;95295.44;;;14.37;77.56
79612;BME280;69094;48.154;11.536;2023-08-31T07:20:17;95294.00;;;14.43;76.96
79612;BME280;69094;48.154;11.536;2023-08-31T07:22:43;95299.41;;;14.39;76.85
79612;BME280;69094;48.154;11.536;2023-08-31T07:25:08;95295.50;;;14.40;76.30
79612;BME280;69094;48.154;11.536;2023-08-31T07:27:34;95309.78;;;14.65;75.69
79612;BME280;69094;48.154;11.536;2023-08-31T07:30:00;95303.25;;;14.70;75.92
79612;BME280;69094;48.154;11.536;2023-08-31T07:32:26;95303.25;;;14.70;75.40
79612;BME280;69094;48.154;11.536;2023-08-31T07:34:52;95304.03;;;14.71;74.00
79612;BME280;69094;48.154;11.536;2023-08-31T07:37:18;95312.69;;;14.73;74.86
79612;BME280;69094;48.154;11.536;2023-08-31T07:39:43;95322.66;;;14.81;75.03
79612;BME280;69094;48.154;11.536;2023-08-31T07:42:09;95319.84;;;14.77;71.99
79612;BME280;69094;48.154;11.536;2023-08-31T07:44:34;95331.00;;;14.69;73.45
79612;BME280;69094;48.154;11.536;2023-08-31T07:46:59;95327.53;;;14.72;73.73
79612;BME280;69094;48.154;11.536;2023-08-31T07:49:25;95329.66;;;14.62;73.74
79612;BME280;69094;48.154;11.536;2023-08-31T07:51:50;95333.03;;;14.72;73.28
79612;BME280;69094;48.154;11.536;2023-08-31T07:54:22;95327.56;;;14.40;74.78
79612;BME280;69094;48.154;11.536;2023-08-31T07:56:47;95321.63;;;14.70;73.89
79612;BME280;69094;48.154;11.536;2023-08-31T07:59:13;95317.56;;;14.99;72.16
79612;BME280;69094;48.154;11.536;2023-08-31T08:01:38;95327.72;;;15.57;71.05
79612;BME280;69094;48.154;11.536;2023-08-31T08:04:04;95321.47;;;15.76;68.21
79612;BME280;69094;48.154;11.536;2023-08-31T08:06:30;95319.44;;;16.19;67.51
79612;BME280;69094;48.154;11.536;2023-08-31T08:08:55;95313.78;;;16.08;65.87
79612;BME280;69094;48.154;11.536;2023-08-31T08:11:22;95326.88;;;16.41;65.06
79612;BME280;69094;48.154;11.536;2023-08-31T08:13:47;95325.59;;;16.62;63.46
79612;BME280;69094;48.154;11.536;2023-08-31T08:16:13;95351.88;;;16.82;62.88
79612;BME280;69094;48.154;11.536;2023-08-31T08:18:39;95335.69;;;16.27;64.06
79612;BME280;69094;48.154;11.536;2023-08-31T08:21:05;95337.56;;;16.00;65.32
79612;BME280;69094;48.154;11.536;2023-08-31T08:23:30;95337.31;;;15.66;67.04
79612;BME280;69094;48.154;11.536;2023-08-31T08:25:56;95351.94;;;15.70;67.69
79612;BME280;69094;48.154;11.536;2023-08-31T08:28:21;95357.59;;;15.42;68.29
79612;BME280;69094;48.154;11.536;2023-08-31T08:30:47;95355.81;;;15.31;69.08
79612;BME280;69094;48.154;11.536;2023-08-31T08:33:12;95359.19;;;15.24;69.63
79612;BME280;69094;48.154;11.536;2023-08-31T08:35:38;95361.66;;;15.29;68.25
79612;BME280;69094;48.154;11.536;2023-08-31T08:38:04;95360.38;;;15.23;67.28
79612;BME280;69094;48.154;11.536;2023-08-31T08:40:31;95361.31;;;15.31;66.14
79612;BME280;69094;48.154;11.536;2023-08-31T08:43:02;95363.09;;;15.23;66.53
79612;BME280;69094;48.154;11.536;2023-08-31T08:45:35;95364.88;;;15.35;65.81
79612;BME280;69094;48.154;11.536;2023-08-31T08:48:08;95371.31;;;15.42;64.82
79612;BME280;69094;48.154;11.536;2023-08-31T08:50:35;95373.22;;;15.38;65.00
79612;BME280;69094;48.154;11.536;2023-08-31T08:53:04;95356.34;;;15.75;64.07
79612;BME280;69094;48.154;11.536;2023-08-31T08:55:30;95358.53;;;16.12;62.66
79612;BME280;69094;48.154;11.536;2023-08-31T08:57:58;95361.13;;;17.27;58.41
79612;BME280;69094;48.154;11.536;2023-08-31T09:00:26;95368.41;;;17.76;56.82
79612;BME280;69094;48.154;11.536;2023-08-31T09:02:52;95370.16;;;17.28;56.36
79612;BME280;69094;48.154;11.536;2023-08-31T09:05:18;95372.09;;;16.97;58.31
79612;BME280;69094;48.154;11.536;2023-08-31T09:08:06;95384.00;;;16.55;59.20
79612;BME280;69094;48.154;11.536;2023-08-31T09:10:45;95387.16;;;16.11;61.13
79612;BME280;69094;48.154;11.536;2023-08-31T09:13:16;95387.94;;;15.88;62.78
79612;BME280;69094;48.154;11.536;2023-08-31T09:15:46;95387.47;;;15.47;63.62
79612;BME280;69094;48.154;11.536;2023-08-31T09:18:26;95388.66;;;15.66;64.12
79612;BME280;69094;48.154;11.536;2023-08-31T09:20:53;95386.69;;;15.66;64.00
79612;BME280;69094;48.154;11.536;2023-08-31T09:23:18;95383.81;;;15.59;64.81
79612;BME280;69094;48.154;11.536;2023-08-31T09:25:54;95384.47;;;15.72;64.35
79612;BME280;69094;48.154;11.536;2023-08-31T09:28:24;95388.28;;;15.87;62.84
79612;BME280;69094;48.154;11.536;2023-08-31T09:30:52;95384.19;;;15.77;63.61
79612;BME280;69094;48.154;11.536;2023-08-31T09:33:19;95387.28;;;15.95;63.21
79612;BME280;69094;48.154;11.536;2023-08-31T09:35:57;95378.00;;;16.49;62.26
79612;BME280;69094;48.154;11.536;2023-08-31T09:38:22;95386.00;;;17.08;58.76
79612;BME280;69094;48.154;11.536;2023-08-31T09:40:48;95387.78;;;17.23;58.62
79612;BME280;69094;48.154;11.536;2023-08-31T09:43:23;95386.66;;;17.28;59.64
79612;BME280;69094;48.154;11.536;2023-08-31T09:45:49;95387.94;;;17.64;57.35
79612;BME280;69094;48.154;11.536;2023-08-31T09:48:16;95390.28;;;17.65;57.68
79612;BME280;69094;48.154;11.536;2023-08-31T09:50:44;95384.22;;;17.49;57.52
79612;BME280;69094;48.154;11.536;2023-08-31T09:53:11;95384.38;;;17.33;57.88
79612;BME280;69094;48.154;11.536;2023-08-31T09:55:39;95383.78;;;16.90;59.26
79612;BME280;69094;48.154;11.536;2023-08-31T09:58:06;95384.84;;;16.59;60.33
79612;BME280;69094;48.154;11.536;2023-08-31T10:00:36;95392.00;;;16.41;61.70
79612;BME280;69094;48.154;11.536;2023-08-31T10:03:03;95388.66;;;16.28;62.36
79612;BME280;69094;48.154;11.536;2023-08-31T10:05:30;95379.09;;;16.22;62.47
79612;BME280;69094;48.154;11.536;2023-08-31T10:07:57;95379.38;;;16.13;62.31
79612;BME280;69094;48.154;11.536;2023-08-31T10:10:23;95382.72;;;16.03;63.18
79612;BME280;69094;48.154;11.536;2023-08-31T10:12:49;95381.56;;;16.27;62.20
79612;BME280;69094;48.154;11.536;2023-08-31T10:15:18;95377.91;;;16.42;61.78
79612;BME280;69094;48.154;11.536;2023-08-31T10:17:45;95379.84;;;16.65;62.01
79612;BME280;69094;48.154;11.536;2023-08-31T10:20:19;95372.69;;;17.40;58.39
79612;BME280;69094;48.154;11.536;2023-08-31T10:22:45;95372.16;;;17.31;57.21
79612;BME280;69094;48.154;11.536;2023-08-31T10:25:11;95373.59;;;17.21;57.99
79612;BME280;69094;48.154;11.536;2023-08-31T10:27:41;95374.09;;;17.27;57.65
79612;BME280;69094;48.154;11.536;2023-08-31T10:35:49;95370.56;;;16.50;60.07
79612;BME280;69094;48.154;11.536;2023-08-31T10:43:56;95375.06;;;16.62;60.41
79612;BME280;69094;48.154;11.536;2023-08-31T10:51:35;95366.19;;;16.95;59.94
79612;BME280;69094;48.154;11.536;2023-08-31T10:54:32;95384.41;;;16.80;60.75
79612;BME280;69094;48.154;11.536;2023-08-31T10:57:04;95372.19;;;17.04;60.00
79612;BME280;69094;48.154;11.536;2023-08-31T10:59:49;95385.88;;;17.27;59.87
79612;BME280;69094;48.154;11.536;2023-08-31T11:05:13;95390.50;;;16.70;62.05
79612;BME280;69094;48.154;11.536;2023-08-31T11:07:47;95398.41;;;16.48;63.22
79612;BME280;69094;48.154;11.536;2023-08-31T11:10:20;95403.44;;;16.69;61.88
79612;BME280;69094;48.154;11.536;2023-08-31T11:12:52;95395.09;;;16.62;62.78
79612;BME280;69094;48.154;11.536;2023-08-31T11:15:20;95395.91;;;16.89;61.93
79612;BME280;69094;48.154;11.536;2023-08-31T11:17:46;95389.59;;;16.85;61.69
79612;BME280;69094;48.154;11.536;2023-08-31T11:20:17;95395.81;;;16.59;61.81
79612;BME280;69094;48.154;11.536;2023-08-31T11:22:44;95396.09;;;16.27;62.45
79612;BME280;69094;48.154;11.536;2023-08-31T11:25:12;95388.44;;;16.17;63.04
79612;BME280;69094;48.154;11.536;2023-08-31T11:27:38;95386.88;;;16.16;62.48
79612;BME280;69094;48.154;11.536;2023-08-31T11:30:16;95395.22;;;16.23;62.97
79612;BME280;69094;48.154;11.536;2023-08-31T11:32:49;95400.06;;;17.59;59.60
79612;BME280;69094;48.154;11.536;2023-08-31T11:35:15;95402.13;;;18.03;56.59
79612;BME280;69094;48.154;11.536;2023-08-31T11:37:44;95401.09;;;18.15;55.03
79612;BME280;69094;48.154;11.536;2023-08-31T11:40:10;95395.91;;;18.06;54.64
79612;BME280;69094;48.154;11.536;2023-08-31T11:42:37;95411.06;;;17.90;54.65
79612;BME280;69094;48.154;11.536;2023-08-31T11:45:03;95398.94;;;17.98;54.41
79612;BME280;69094;48.154;11.536;2023-08-31T11:47:31;95404.44;;;17.98;55.28
79612;BME280;69094;48.154;11.536;2023-08-31T11:49:57;95401.59;;;17.87;55.81
79612;BME280;69094;48.154;11.536;2023-08-31T11:52:23;95406.78;;;17.65;56.58
79612;BME280;69094;48.154;11.536;2023-08-31T11:54:52;95408.00;;;17.68;56.63
79612;BME280;69094;48.154;11.536;2023-08-31T11:57:19;95394.09;;;17.84;55.45
79612;BME280;69094;48.154;11.536;2023-08-31T11:59:44;95406.47;;;17.71;56.57
79612;BME280;69094;48.154;11.536;2023-08-31T12:02:09;95407.22;;;17.68;56.35
79612;BME280;69094;48.154;11.536;2023-08-31T12:04:44;95408.88;;;17.76;55.97
79612;BME280;69094;48.154;11.536;2023-08-31T12:07:10;95406.16;;;18.95;54.66
79612;BME280;69094;48.154;11.536;2023-08-31T12:09:38;95409.91;;;20.08;50.03
79612;BME280;69094;48.154;11.536;2023-08-31T12:12:04;95413.97;;;21.04;44.71
79612;BME280;69094;48.154;11.536;2023-08-31T12:14:30;95417.41;;;21.80;45.06
79612;BME280;69094;48.154;11.536;2023-08-31T12:17:03;95421.34;;;22.67;42.91
79612;BME280;69094;48.154;11.536;2023-08-31T12:19:32;95406.63;;;23.26;40.76
79612;BME280;69094;48.154;11.536;2023-08-31T12:21:58;95423.34;;;23.18;40.78
79612;BME280;69094;48.154;11.536;2023-08-31T12:24:24;95424.44;;;23.28;38.84
79612;BME280;69094;48.154;11.536;2023-08-31T12:26:50;95415.97;;;22.97;40.06
79612;BME280;69094;48.154;11.536;2023-08-31T12:29:18;95415.09;;;22.48;40.65
79612;BME280;69094;48.154;11.536;2023-08-31T12:31:44;95413.31;;;22.24;42.19
79612;BME280;69094;48.154;11.536;2023-08-31T12:34:10;95424.66;;;21.13;43.57
79612;BME280;69094;48.154;11.536;2023-08-31T12:36:36;95409.81;;;21.98;41.95
79612;BME280;69094;48.154;11.536;2023-08-31T12:39:03;95413.66;;;22.29;40.72
79612;BME280;69094;48.154;11.536;2023-08-31T12:41:34;95419.44;;;21.61;42.31
79612;BME280;69094;48.154;11.536;2023-08-31T12:44:00;95410.44;;;20.96;43.54
79612;BME280;69094;48.154;11.536;2023-08-31T12:46:25;95410.84;;;20.88;45.47
79612;BME280;69094;48.154;11.536;2023-08-31T12:48:51;95412.81;;;20.65;45.56
79612;BME280;69094;48.154;11.536;2023-08-31T12:51:18;95415.94;;;21.21;44.30
79612;BME280;69094;48.154;11.536;2023-08-31T12:53:43;95399.78;;;20.98;44.79
79612;BME280;69094;48.154;11.536;2023-08-31T12:56:08;95406.13;;;20.84;45.86
79612;BME280;69094;48.154;11.536;2023-08-31T12:58:34;95400.97;;;20.69;45.41
79612;BME280;69094;48.154;11.536;2023-08-31T13:00:59;95406.91;;;20.78;45.88
79612;BME280;69094;48.154;11.536;2023-08-31T13:03:25;95404.38;;;20.05;46.76
79612;BME280;69094;48.154;11.536;2023-08-31T13:05:50;95417.69;;;19.77;46.83
79612;BME280;69094;48.154;11.536;2023-08-31T13:08:16;95411.88;;;19.27;48.65
79612;BME280;69094;48.154;11.536;2023-08-31T13:10:42;95412.91;;;19.05;50.11
79612;BME280;69094;48.154;11.536;2023-08-31T13:13:07;95422.69;;;18.91;50.89
79612;BME280;69094;48.154;11.536;2023-08-31T13:15:33;95403.13;;;19.11;49.17
79612;BME280;69094;48.154;11.536;2023-08-31T13:17:59;95425.75;;;19.38;48.52